Aviation Digital Data Service (ADDS)

Output produced by TAFs form (1301 UTC 20 October 2014)
found at http://aviationweather.gov/adds/tafs/
 
KTUS 201128Z 2012/2112 15007KT P6SM SKC 
     FM202000 07006KT P6SM SCT090 
     FM210500 14006KT P6SM FEW150